This is the latest recevied weather packets stored in our database for station/object N2ZVN. If no packets are shown the sender has not sent any weather packets the latest 1 day(s).
| Time | Temp. | Humidity | Pressure | Rain* | Wind** | Luminosity | Snow |
|---|---|---|---|---|---|---|---|
| 1778085666 | 7.78° C | 87% | 1010.9 hPa | 0 mm | - | 237 W/m² | - |
| 1778083240 | 7.78° C | 90% | 1010.9 hPa | 0 mm | - | 218 W/m² | - |
| 1778081224 | 7.22° C | 94% | 1010.6 hPa | 0 mm | - | 165 W/m² | - |
| 1778080316 | 7.22° C | 93% | 1010.5 hPa | 1.27 mm | - | 193 W/m² | - |
| 1778080013 | 7.22° C | 94% | 1010.6 hPa | 1.27 mm | - | 186 W/m² | - |
| 1778079710 | 6.67° C | 93% | 1010.5 hPa | 0 mm | - | 221 W/m² | - |
| 1778078498 | 6.67° C | 94% | 1010.7 hPa | 0 mm | - | 149 W/m² | - |
| 1778077893 | 6.67° C | 95% | 1010.6 hPa | 1.78 mm | - | 130 W/m² | - |
| 1778076685 | 6.67° C | 94% | 1010.3 hPa | 0 mm | - | 82 W/m² | - |
| 1778076382 | 6.67° C | 95% | 1010.4 hPa | 0 mm | - | 65 W/m² | - |
| 1778075776 | 6.11° C | 94% | 1010.2 hPa | 0 mm | - | 53 W/m² | - |
| 1778074259 | 6.11° C | 96% | 1010 hPa | 1.78 mm | - | 41 W/m² | - |
| 1778073956 | 6.11° C | 96% | 1010.1 hPa | 1.78 mm | - | 48 W/m² | - |
| 1778070324 | 6.11° C | 95% | 1009.7 hPa | 1.27 mm | - | 46 W/m² | - |
| 1778069114 | 6.11° C | 96% | 1009.7 hPa | 1.78 mm | - | 35 W/m² | - |
| 1778068811 | 6.11° C | 96% | 1010 hPa | 1.78 mm | - | 33 W/m² | - |
| 1778068207 | 6.11° C | 96% | 1009.8 hPa | 1.27 mm | - | 25 W/m² | - |
| 1778067904 | 6.11° C | 96% | 1009.5 hPa | 1.78 mm | - | 24 W/m² | - |
| 1778066996 | 6.11° C | 96% | 1009.7 hPa | 1.27 mm | - | 19 W/m² | - |
| 1778066089 | 6.11° C | 97% | 1009.7 hPa | 0 mm | - | 16 W/m² | - |
| 1778064876 | 6.11° C | 97% | 1009.6 hPa | 1.27 mm | - | 9 W/m² | - |
| 1778062152 | 6.67° C | 97% | 1009.9 hPa | 0 mm | - | 1 W/m² | - |
| 1778061548 | 6.67° C | 97% | 1009.7 hPa | 0 mm | - | 0 W/m² | - |
| 1778060641 | 6.67° C | 97% | 1009.7 hPa | 1.78 mm | - | 0 W/m² | - |
| 1778060036 | 6.67° C | 97% | 1009.9 hPa | 1.27 mm | - | 0 W/m² | - |
* Rain latest hour (hover to see other rain measurements)
** Current wind speed in m/s (hover to see current wind gust speed)